Portada
METAR-TAF:

METAR-TAF

Aeropuertos :

Kish, Irán

latitud: 26-31-36N, longitud: 053-58-54E, altitud: 30 m

Observación

El informe se hizo hace 45 minutos, a las 19:00 UTC
Viento 8 kt del oeste-noroeste
Temperatura 18°C
Humedad 64%
Presión 1017 hPa
Visibilidad 10 km o más
sin nubes por debajo de 1500 m y sin presencia de cumulonimbus.

METAR: OIBK 201900Z 29008KT CAVOK 18/11 Q1017

Hora: 23:15 (19:45 UTC)

Pronóstico

El informe se hizo hace 2 horas y 15 minutos, a las 17:30 UTC
Pronóstico válido del 20 a las 18 UTC al 21 a las 24 UTC
Viento 10 kt del noroeste
Visibilidad: 7000 m
Temporalmente
del 21 a las 09 UTC al 21 a las 15 UTC
Viento 16 kt del este con ráfagas de 26 kt
Escasas nubes a una altura de 2500 ft, Cumulonimbus.
Nubes dispersas a una altura de 3000 ft
Cielo nuboso a una altura de 7000 ft

TAF: OIBK 201730Z 2018/2124 31010KT 7000 NSC TEMPO 2109/2115 09016G26KT FEW025CB SCT030 BKN070

Observaciones y pronósticos meteorológicos de más de 4000 aeropuertos (mensajes METAR y TAF).

Los puntos amarillos y rojos representan las estaciones disponibles.

Ponga el ratón en el punto deseado para ver el nombre de la estación.

Haga clic para ver las observaciones y los pronósticos meteorológicos.

Para cambiar el mapa : haga clic en los botones verdes con una cruz de color negro para hacer un zoom, en el botón verde con un guión para alejar o en las flechas verdes para mapas adyacentes.


METAR-TAF: